createdAt,value
2022-09-18T00:02:43.327Z,39.47
2022-09-18T00:07:44.721Z,39.43
2022-09-18T00:12:46.077Z,39.44
2022-09-18T00:17:47.505Z,39.58
2022-09-18T00:22:48.902Z,39.38
2022-09-18T00:27:50.266Z,39.33
2022-09-18T00:32:51.634Z,39.24
2022-09-18T00:37:52.985Z,39.41
2022-09-18T00:42:54.382Z,39.39
2022-09-18T00:47:55.736Z,39.52
2022-09-18T00:53:01.965Z,39.63
2022-09-18T00:58:03.359Z,39.67
2022-09-18T01:03:04.761Z,39.68
2022-09-18T01:08:35.464Z,39.60
2022-09-18T01:13:59.744Z,39.51
2022-09-18T01:19:28.860Z,39.86
2022-09-18T01:24:41.064Z,39.88
2022-09-18T01:29:55.324Z,39.72
2022-09-18T01:35:37.212Z,39.82
2022-09-18T01:40:53.352Z,39.75
2022-09-18T01:45:55.556Z,39.95
2022-09-18T01:51:04.732Z,39.65
2022-09-18T01:56:07.892Z,39.93
2022-09-18T02:01:12.981Z,39.97
2022-09-18T02:06:23.501Z,40.14
2022-09-18T02:11:24.862Z,40.08
2022-09-18T02:16:29.475Z,40.10
2022-09-18T02:21:31.040Z,40.25
2022-09-18T02:26:32.752Z,40.32
2022-09-18T02:31:34.196Z,40.46
2022-09-18T02:36:55.652Z,40.44
2022-09-18T02:42:21.213Z,40.38
2022-09-18T02:47:28.322Z,40.76
2022-09-18T02:52:34.317Z,40.66
2022-09-18T02:57:37.993Z,40.44
2022-09-18T03:02:39.417Z,40.59
2022-09-18T03:07:40.888Z,40.55
2022-09-18T03:12:42.249Z,40.77
2022-09-18T03:17:43.604Z,40.67
2022-09-18T03:22:44.966Z,40.45
2022-09-18T03:27:46.333Z,40.49
2022-09-18T03:32:47.691Z,40.57
2022-09-18T03:37:49.064Z,40.68
2022-09-18T03:42:50.749Z,40.63
2022-09-18T03:47:52.144Z,40.70
2022-09-18T03:52:53.500Z,40.61
2022-09-18T03:57:55.072Z,40.71
2022-09-18T04:02:56.469Z,40.63
2022-09-18T04:07:57.928Z,40.63
2022-09-18T04:12:59.282Z,40.70
2022-09-18T04:18:00.708Z,40.64
2022-09-18T04:23:02.065Z,40.52
2022-09-18T04:28:03.433Z,40.52
2022-09-18T04:33:05.006Z,40.58
2022-09-18T04:38:06.363Z,40.60
2022-09-18T04:43:10.189Z,40.46
2022-09-18T04:48:11.554Z,40.61
2022-09-18T04:53:13.208Z,40.45
2022-09-18T04:58:15.030Z,40.45
2022-09-18T05:03:17.882Z,40.63
2022-09-18T05:08:19.276Z,40.55
2022-09-18T05:13:20.632Z,40.49
2022-09-18T05:18:22.041Z,40.40
2022-09-18T05:23:23.400Z,40.27
2022-09-18T05:28:24.817Z,40.09
2022-09-18T05:33:26.393Z,40.42
2022-09-18T05:38:27.808Z,40.29
2022-09-18T05:43:29.436Z,40.08
2022-09-18T05:48:31.025Z,40.23
2022-09-18T05:53:32.385Z,40.41
2022-09-18T05:58:33.740Z,40.17
2022-09-18T06:03:35.120Z,40.15
2022-09-18T06:08:36.558Z,40.20
2022-09-18T06:13:37.953Z,40.13
2022-09-18T06:18:39.321Z,40.02
2022-09-18T06:23:40.852Z,40.15
2022-09-18T06:28:42.208Z,40.18
2022-09-18T06:33:43.577Z,40.04
2022-09-18T06:38:44.937Z,39.99
2022-09-18T06:43:49.977Z,40.07
2022-09-18T06:48:51.537Z,40.17
2022-09-18T06:53:52.936Z,40.00
2022-09-18T06:58:54.294Z,39.94
2022-09-18T07:03:55.656Z,39.89
2022-09-18T07:08:57.589Z,39.77
2022-09-18T07:13:58.944Z,39.54
2022-09-18T07:19:00.305Z,39.82
2022-09-18T07:24:01.785Z,39.58
2022-09-18T07:29:06.869Z,39.81
2022-09-18T07:34:11.748Z,39.86
2022-09-18T07:39:13.100Z,39.89
2022-09-18T07:44:14.456Z,39.85
2022-09-18T07:49:15.813Z,39.93
2022-09-18T07:54:17.321Z,39.98
2022-09-18T07:59:18.695Z,40.06
2022-09-18T08:04:20.057Z,39.96
2022-09-18T08:09:21.900Z,39.94
2022-09-18T08:14:28.073Z,39.78
2022-09-18T08:19:30.865Z,39.90
2022-09-18T08:24:32.864Z,40.00
2022-09-18T08:29:34.316Z,39.98
2022-09-18T08:34:35.696Z,39.86
2022-09-18T08:39:37.052Z,39.87
2022-09-18T08:45:00.424Z,39.72
2022-09-18T08:50:10.440Z,39.69
2022-09-18T08:55:20.240Z,39.68
2022-09-18T09:00:36.480Z,39.47
2022-09-18T09:05:43.151Z,39.36
2022-09-18T09:11:02.672Z,39.55
2022-09-18T09:16:07.320Z,39.35
2022-09-18T09:21:23.604Z,39.23
2022-09-18T09:26:25.188Z,39.14
2022-09-18T09:31:35.540Z,39.35
2022-09-18T09:36:36.956Z,39.17
2022-09-18T09:41:46.654Z,39.14
2022-09-18T09:47:01.242Z,39.27
2022-09-18T09:52:09.535Z,39.08
2022-09-18T09:57:38.796Z,39.10
2022-09-18T10:03:02.997Z,39.08
2022-09-18T10:08:07.348Z,39.21
2022-09-18T10:13:20.676Z,39.17
2022-09-18T10:18:23.295Z,39.07
2022-09-18T10:23:34.226Z,38.85
2022-09-18T10:28:35.596Z,38.90
2022-09-18T10:33:39.493Z,38.77
2022-09-18T10:38:40.932Z,38.89
2022-09-18T10:44:14.444Z,38.98
2022-09-18T10:49:18.484Z,38.83
2022-09-18T10:54:25.029Z,38.91
2022-09-18T10:59:29.312Z,38.41
2022-09-18T11:04:31.629Z,38.77
2022-09-18T11:09:36.788Z,38.60
2022-09-18T11:14:43.265Z,38.48
2022-09-18T11:19:49.628Z,38.77
2022-09-18T11:24:51.053Z,38.28
2022-09-18T11:29:52.793Z,38.66
2022-09-18T11:34:55.225Z,38.83
2022-09-18T11:40:00.484Z,38.81
2022-09-18T11:45:15.328Z,38.91
2022-09-18T11:50:21.628Z,38.57
2022-09-18T11:55:31.031Z,38.92
2022-09-18T12:00:36.352Z,38.98
2022-09-18T12:05:54.773Z,38.99
2022-09-18T12:11:06.200Z,38.95
2022-09-18T12:16:30.861Z,38.86
2022-09-18T12:21:40.912Z,38.55
2022-09-18T12:26:44.585Z,38.78
2022-09-18T12:32:04.644Z,38.62
2022-09-18T12:37:18.585Z,38.61
2022-09-18T12:42:42.620Z,38.77
2022-09-18T12:48:08.615Z,38.55
2022-09-18T12:53:41.781Z,38.32
2022-09-18T12:59:20.797Z,37.79
2022-09-18T13:04:27.640Z,38.30
2022-09-18T13:09:49.228Z,38.09
2022-09-18T13:15:03.021Z,38.46
2022-09-18T13:20:11.455Z,38.55
2022-09-18T13:25:33.174Z,38.45
2022-09-18T13:30:34.571Z,38.58
2022-09-18T13:35:36.919Z,38.71
2022-09-18T13:40:39.825Z,38.69
2022-09-18T13:45:41.227Z,38.80
2022-09-18T13:51:04.509Z,38.80
2022-09-18T13:56:07.408Z,38.90
2022-09-18T14:01:09.628Z,38.75
2022-09-18T14:06:36.984Z,38.66
2022-09-18T14:11:38.408Z,38.96
2022-09-18T14:16:43.466Z,38.87
2022-09-18T14:21:44.820Z,38.78
2022-09-18T14:26:46.992Z,38.88
2022-09-18T14:31:49.102Z,38.95
2022-09-18T14:36:53.152Z,39.03
2022-09-18T14:41:55.816Z,38.93
2022-09-18T14:46:59.044Z,39.08
2022-09-18T14:52:04.376Z,38.98
2022-09-18T14:57:06.063Z,39.19
2022-09-18T15:02:36.447Z,39.17
2022-09-18T15:07:40.812Z,39.14
2022-09-18T15:12:42.172Z,39.33
2022-09-18T15:17:50.084Z,39.14
2022-09-18T15:22:51.488Z,39.32
2022-09-18T15:27:53.095Z,39.57
2022-09-18T15:33:04.268Z,39.80
2022-09-18T15:38:07.868Z,39.98
2022-09-18T15:43:30.680Z,40.03
2022-09-18T15:48:43.899Z,40.10
2022-09-18T15:54:15.412Z,40.22
2022-09-18T15:59:36.889Z,40.23
2022-09-18T16:04:38.242Z,40.34
2022-09-18T16:09:44.136Z,40.27
2022-09-18T16:14:46.055Z,40.38
2022-09-18T16:19:47.408Z,40.48
2022-09-18T16:24:49.415Z,40.53
2022-09-18T16:29:50.828Z,40.48
2022-09-18T16:34:52.265Z,40.49
2022-09-18T16:39:53.732Z,40.49
2022-09-18T16:44:55.136Z,40.42
2022-09-18T16:49:56.497Z,40.44
2022-09-18T16:54:57.852Z,40.45
2022-09-18T16:59:59.808Z,40.35
2022-09-18T17:05:01.581Z,40.35
2022-09-18T17:10:03.336Z,40.30
2022-09-18T17:15:06.149Z,40.30
2022-09-18T17:20:08.784Z,40.15
2022-09-18T17:25:11.352Z,40.20
2022-09-18T17:30:12.766Z,40.10
2022-09-18T17:35:14.757Z,40.30
2022-09-18T17:40:16.217Z,40.12
2022-09-18T17:45:17.660Z,40.06
2022-09-18T17:50:20.208Z,39.99
2022-09-18T17:55:21.584Z,40.16
2022-09-18T18:00:24.133Z,40.08
2022-09-18T18:05:26.471Z,39.87
2022-09-18T18:10:29.351Z,39.93
2022-09-18T18:15:30.703Z,39.98
2022-09-18T18:20:32.104Z,39.90
2022-09-18T18:25:36.464Z,39.88
2022-09-18T18:30:38.676Z,39.81
2022-09-18T18:35:40.036Z,39.61
2022-09-18T18:40:41.412Z,39.54
2022-09-18T18:45:56.393Z,39.72
2022-09-18T18:50:59.452Z,39.67
2022-09-18T18:56:04.954Z,39.58
2022-09-18T19:01:15.031Z,39.63
2022-09-18T19:06:16.809Z,39.52
2022-09-18T19:11:21.609Z,39.62
2022-09-18T19:16:24.343Z,39.44
2022-09-18T19:21:26.512Z,39.50
2022-09-18T19:26:28.593Z,39.62
2022-09-18T19:31:29.968Z,39.44
2022-09-18T19:36:31.400Z,39.37
2022-09-18T19:41:42.805Z,39.21
2022-09-18T19:46:45.903Z,39.38
2022-09-18T19:51:47.300Z,39.46
2022-09-18T19:56:48.705Z,39.43
2022-09-18T20:01:50.164Z,39.29
2022-09-18T20:06:51.581Z,39.35
2022-09-18T20:11:52.936Z,39.32
2022-09-18T20:16:54.860Z,39.37
2022-09-18T20:21:56.213Z,39.20
2022-09-18T20:26:58.305Z,39.30
2022-09-18T20:31:59.687Z,39.30
2022-09-18T20:37:02.717Z,39.27
2022-09-18T20:42:04.360Z,39.44
2022-09-18T20:47:06.818Z,39.39
2022-09-18T20:52:14.122Z,39.30
2022-09-18T20:57:15.880Z,39.18
2022-09-18T21:02:17.989Z,39.21
2022-09-18T21:07:21.183Z,39.27
2022-09-18T21:12:22.544Z,39.29
2022-09-18T21:17:24.031Z,39.07
2022-09-18T21:22:28.292Z,39.32
2022-09-18T21:27:29.646Z,39.25
2022-09-18T21:32:31.000Z,39.08
2022-09-18T21:37:33.006Z,39.07
2022-09-18T21:42:34.397Z,39.08
2022-09-18T21:47:36.996Z,39.17
2022-09-18T21:52:39.490Z,39.11
2022-09-18T21:57:40.852Z,39.13
2022-09-18T22:02:43.150Z,39.31
2022-09-18T22:07:44.505Z,39.21
2022-09-18T22:12:45.869Z,39.07
2022-09-18T22:17:48.536Z,38.97
2022-09-18T22:22:49.903Z,39.23
2022-09-18T22:27:51.559Z,39.27
2022-09-18T22:32:52.956Z,39.24
2022-09-18T22:37:54.316Z,39.04
2022-09-18T22:42:55.838Z,39.20
2022-09-18T22:47:57.205Z,39.13
2022-09-18T22:52:58.719Z,39.20
2022-09-18T22:58:00.176Z,39.08
2022-09-18T23:03:01.625Z,39.18
2022-09-18T23:08:03.303Z,39.21
2022-09-18T23:13:04.685Z,39.34
2022-09-18T23:18:06.060Z,39.27
2022-09-18T23:23:07.417Z,39.32
2022-09-18T23:28:08.772Z,39.46
2022-09-18T23:33:10.123Z,39.54
2022-09-18T23:38:11.484Z,39.47
2022-09-18T23:43:12.840Z,39.45
2022-09-18T23:48:14.200Z,39.61
2022-09-18T23:53:15.563Z,39.64
2022-09-18T23:58:17.855Z,39.65
